Terminal Aerodrome Forecast
Issued by NWS

Home | Current Version | Previous Version | Text Only | Print | Product List | Glossary On
Versions: 1 2 3 4 5 6 7 8 9 10 11 12 13 14 15 16 17 18 19 20 21 22 23 24 25 26 27 28 29 30
000
FTUS45 KGJT 202119 AAA
TAFRIL
TAF AMD
KRIL 202119Z 2021/2118 34015G25KT P6SM SCT150
     FM210200 09008KT P6SM BKN130
     FM210500 12005KT P6SM BKN120
     FM211300 VRB04KT P6SM SCT110=

USA.gov is the U.S. government's official web portal to all federal, state and local government web resources and services.